Anemona — 3EUT9 — position and weather

sailwx.info

Track history (hours):
 
Tides and Currents Weather Stations Pressure Air Temp Water Temp Dewpoint Dewpoint Depression Visibility Wind Speed Wind Dir Waves Ship Positions

Anemona

Last reported at 2014-Aug-11 13:21 UTC. Time now 2014-Aug-23 01:35 UTC.
Position N 30°55' E 126°13'.
Warning: this ship's position is 11 days out of date.

Length 192 m; draft 10.5 m.

Type: Cargo ship. MMSI: 355664000.

Date/timePositionNaut miles runAvg speedWind from/ knotsBaromVisibWave heightAir tempDewpointWater temp
2014-Aug-11 13:21N 30°55' E 126°13'47011.7
2014-Aug-09 21:05N 25°15' E 120°06'11112.4
2014-Aug-09 12:07N 23°52' E 118°45'1113.3
2014-Aug-09 11:19N 23°46' E 118°35'1113.7
2014-Aug-09 10:33N 23°41' E 118°25'1514.7
2014-Aug-09 09:33N 23°31' E 118°13'1613.6
2014-Aug-09 08:22N 23°21' E 117°59'1012.2
2014-Aug-09 07:33N 23°16' E 117°50'1311.1
2014-Aug-09 06:21N 23°07' E 117°39'2111.5
2014-Aug-09 04:29N 22°54' E 117°20'1612.4
2014-Aug-09 03:11N 22°45' E 117°06'  
Track history (hours):
 
Tides and Currents Weather Stations Pressure Air Temp Water Temp Dewpoint Dewpoint Depression Visibility Wind Speed Wind Dir Waves Ship Positions

Anemona

Last reported at 2014-Aug-11 13:21 UTC. Time now 2014-Aug-23 01:35 UTC.
Position N 30°55' E 126°13'.
Warning: this ship's position is 11 days out of date.

Length 192 m; draft 10.5 m.

Type: Cargo ship. MMSI: 355664000.

Date/timePositionNaut miles runAvg speedWind from/ knotsBaromVisibWave heightAir tempDewpointWater temp
2014-Aug-11 13:21N 30°55' E 126°13'47011.7
2014-Aug-09 21:05N 25°15' E 120°06'11112.4
2014-Aug-09 12:07N 23°52' E 118°45'1113.3
2014-Aug-09 11:19N 23°46' E 118°35'1113.7
2014-Aug-09 10:33N 23°41' E 118°25'1514.7
2014-Aug-09 09:33N 23°31' E 118°13'1613.6
2014-Aug-09 08:22N 23°21' E 117°59'1012.2
2014-Aug-09 07:33N 23°16' E 117°50'1311.1
2014-Aug-09 06:21N 23°07' E 117°39'2111.5
2014-Aug-09 04:29N 22°54' E 117°20'1612.4
2014-Aug-09 03:11N 22°45' E 117°06'  

Dump ship's entire track history